sensor_id;sensor_type;location;lat;lon;timestamp;P1;durP1;ratioP1;P2;durP2;ratioP2
35648;SDS011;21768;48.562;13.414;2023-02-18T00:00:05;6.35;;;2.90;;
35648;SDS011;21768;48.562;13.414;2023-02-18T00:02:32;6.82;;;3.03;;
35648;SDS011;21768;48.562;13.414;2023-02-18T00:04:58;6.57;;;3.38;;
35648;SDS011;21768;48.562;13.414;2023-02-18T00:07:23;6.70;;;2.65;;
35648;SDS011;21768;48.562;13.414;2023-02-18T00:09:49;12.57;;;3.22;;
35648;SDS011;21768;48.562;13.414;2023-02-18T00:12:14;7.43;;;3.03;;
35648;SDS011;21768;48.562;13.414;2023-02-18T00:14:40;6.95;;;3.22;;
35648;SDS011;21768;48.562;13.414;2023-02-18T00:17:05;7.05;;;2.53;;
35648;SDS011;21768;48.562;13.414;2023-02-18T00:19:30;8.02;;;2.95;;
35648;SDS011;21768;48.562;13.414;2023-02-18T00:21:56;5.32;;;3.30;;
35648;SDS011;21768;48.562;13.414;2023-02-18T00:24:22;6.65;;;3.20;;
35648;SDS011;21768;48.562;13.414;2023-02-18T00:26:51;9.75;;;3.03;;
35648;SDS011;21768;48.562;13.414;2023-02-18T00:29:17;8.50;;;3.05;;
35648;SDS011;21768;48.562;13.414;2023-02-18T00:31:43;5.53;;;2.95;;
35648;SDS011;21768;48.562;13.414;2023-02-18T00:34:08;5.10;;;3.30;;
35648;SDS011;21768;48.562;13.414;2023-02-18T00:36:35;8.23;;;3.15;;
35648;SDS011;21768;48.562;13.414;2023-02-18T00:39:01;7.72;;;3.00;;
35648;SDS011;21768;48.562;13.414;2023-02-18T00:41:29;4.55;;;2.30;;
35648;SDS011;21768;48.562;13.414;2023-02-18T00:43:55;4.35;;;2.30;;
35648;SDS011;21768;48.562;13.414;2023-02-18T00:46:21;6.60;;;2.38;;
35648;SDS011;21768;48.562;13.414;2023-02-18T00:48:48;7.97;;;2.50;;
35648;SDS011;21768;48.562;13.414;2023-02-18T00:51:13;8.82;;;2.60;;
35648;SDS011;21768;48.562;13.414;2023-02-18T00:53:39;6.80;;;2.45;;
35648;SDS011;21768;48.562;13.414;2023-02-18T00:56:04;8.63;;;2.65;;
35648;SDS011;21768;48.562;13.414;2023-02-18T00:58:30;5.50;;;2.40;;
35648;SDS011;21768;48.562;13.414;2023-02-18T01:00:56;5.38;;;2.30;;
35648;SDS011;21768;48.562;13.414;2023-02-18T01:03:22;13.23;;;2.25;;
35648;SDS011;21768;48.562;13.414;2023-02-18T01:05:48;3.85;;;2.15;;
35648;SDS011;21768;48.562;13.414;2023-02-18T01:08:14;6.65;;;2.83;;
35648;SDS011;21768;48.562;13.414;2023-02-18T01:10:42;5.78;;;2.67;;
35648;SDS011;21768;48.562;13.414;2023-02-18T01:13:09;12.30;;;4.53;;
35648;SDS011;21768;48.562;13.414;2023-02-18T01:15:36;5.43;;;2.13;;
35648;SDS011;21768;48.562;13.414;2023-02-18T01:18:02;3.63;;;2.10;;
35648;SDS011;21768;48.562;13.414;2023-02-18T01:20:28;3.10;;;1.52;;
35648;SDS011;21768;48.562;13.414;2023-02-18T01:22:54;11.82;;;2.05;;
35648;SDS011;21768;48.562;13.414;2023-02-18T01:25:19;4.90;;;2.15;;
35648;SDS011;21768;48.562;13.414;2023-02-18T01:27:44;3.90;;;1.60;;
35648;SDS011;21768;48.562;13.414;2023-02-18T01:30:11;5.75;;;1.60;;
35648;SDS011;21768;48.562;13.414;2023-02-18T01:32:39;3.13;;;1.95;;
35648;SDS011;21768;48.562;13.414;2023-02-18T01:35:05;2.50;;;1.50;;
35648;SDS011;21768;48.562;13.414;2023-02-18T01:37:31;4.10;;;1.80;;
35648;SDS011;21768;48.562;13.414;2023-02-18T01:39:57;2.72;;;1.58;;
35648;SDS011;21768;48.562;13.414;2023-02-18T01:42:25;2.47;;;1.67;;
35648;SDS011;21768;48.562;13.414;2023-02-18T01:44:52;4.25;;;1.52;;
35648;SDS011;21768;48.562;13.414;2023-02-18T01:47:18;1.85;;;1.20;;
35648;SDS011;21768;48.562;13.414;2023-02-18T01:49:45;3.38;;;1.63;;
35648;SDS011;21768;48.562;13.414;2023-02-18T01:52:16;2.63;;;1.40;;
35648;SDS011;21768;48.562;13.414;2023-02-18T01:54:47;4.47;;;1.48;;
35648;SDS011;21768;48.562;13.414;2023-02-18T01:57:16;2.50;;;1.48;;
35648;SDS011;21768;48.562;13.414;2023-02-18T02:02:21;2.30;;;1.40;;
35648;SDS011;21768;48.562;13.414;2023-02-18T02:04:50;3.30;;;1.40;;
35648;SDS011;21768;48.562;13.414;2023-02-18T02:07:17;3.28;;;1.30;;
35648;SDS011;21768;48.562;13.414;2023-02-18T02:09:44;1.80;;;1.20;;
35648;SDS011;21768;48.562;13.414;2023-02-18T02:12:49;1.60;;;1.13;;
35648;SDS011;21768;48.562;13.414;2023-02-18T02:15:35;3.83;;;1.20;;
35648;SDS011;21768;48.562;13.414;2023-02-18T02:26:32;1.42;;;0.90;;
35648;SDS011;21768;48.562;13.414;2023-02-18T02:37:53;3.42;;;1.25;;
35648;SDS011;21768;48.562;13.414;2023-02-18T02:40:32;2.90;;;1.33;;
35648;SDS011;21768;48.562;13.414;2023-02-18T02:48:08;2.17;;;1.10;;
35648;SDS011;21768;48.562;13.414;2023-02-18T02:53:39;2.13;;;1.10;;
35648;SDS011;21768;48.562;13.414;2023-02-18T02:56:06;3.08;;;1.10;;
35648;SDS011;21768;48.562;13.414;2023-02-18T02:58:37;3.22;;;1.05;;
35648;SDS011;21768;48.562;13.414;2023-02-18T03:06:40;3.22;;;1.20;;
35648;SDS011;21768;48.562;13.414;2023-02-18T03:14:52;1.50;;;1.10;;
35648;SDS011;21768;48.562;13.414;2023-02-18T03:17:34;4.40;;;1.45;;
35648;SDS011;21768;48.562;13.414;2023-02-18T03:20:15;2.83;;;1.30;;
35648;SDS011;21768;48.562;13.414;2023-02-18T03:22:47;4.57;;;1.20;;
35648;SDS011;21768;48.562;13.414;2023-02-18T03:25:15;2.28;;;1.30;;
35648;SDS011;21768;48.562;13.414;2023-02-18T03:32:45;1.97;;;1.10;;
35648;SDS011;21768;48.562;13.414;2023-02-18T03:35:14;1.85;;;1.00;;
35648;SDS011;21768;48.562;13.414;2023-02-18T03:37:49;1.73;;;0.93;;
35648;SDS011;21768;48.562;13.414;2023-02-18T03:40:18;1.92;;;1.05;;
35648;SDS011;21768;48.562;13.414;2023-02-18T03:42:44;2.47;;;0.82;;
35648;SDS011;21768;48.562;13.414;2023-02-18T03:45:09;2.67;;;1.10;;
35648;SDS011;21768;48.562;13.414;2023-02-18T03:47:35;2.28;;;1.02;;
35648;SDS011;21768;48.562;13.414;2023-02-18T03:50:01;3.15;;;1.27;;
35648;SDS011;21768;48.562;13.414;2023-02-18T03:52:27;4.53;;;1.13;;
35648;SDS011;21768;48.562;13.414;2023-02-18T03:54:53;1.77;;;0.88;;
35648;SDS011;21768;48.562;13.414;2023-02-18T03:57:18;3.25;;;1.40;;
35648;SDS011;21768;48.562;13.414;2023-02-18T03:59:43;2.58;;;1.00;;
35648;SDS011;21768;48.562;13.414;2023-02-18T04:02:09;1.55;;;0.73;;
35648;SDS011;21768;48.562;13.414;2023-02-18T04:04:34;3.70;;;1.10;;
35648;SDS011;21768;48.562;13.414;2023-02-18T04:06:59;1.83;;;0.90;;
35648;SDS011;21768;48.562;13.414;2023-02-18T04:09:25;3.17;;;1.02;;
35648;SDS011;21768;48.562;13.414;2023-02-18T04:11:50;2.40;;;0.98;;
35648;SDS011;21768;48.562;13.414;2023-02-18T04:14:16;1.83;;;0.80;;
35648;SDS011;21768;48.562;13.414;2023-02-18T04:16:41;3.30;;;1.23;;
35648;SDS011;21768;48.562;13.414;2023-02-18T04:19:07;4.25;;;1.13;;
35648;SDS011;21768;48.562;13.414;2023-02-18T04:21:33;3.08;;;1.20;;
35648;SDS011;21768;48.562;13.414;2023-02-18T04:23:59;3.92;;;1.27;;
35648;SDS011;21768;48.562;13.414;2023-02-18T04:26:24;9.02;;;1.20;;
35648;SDS011;21768;48.562;13.414;2023-02-18T04:28:50;2.78;;;1.10;;
35648;SDS011;21768;48.562;13.414;2023-02-18T04:31:16;7.50;;;1.27;;
35648;SDS011;21768;48.562;13.414;2023-02-18T04:33:41;1.58;;;1.00;;
35648;SDS011;21768;48.562;13.414;2023-02-18T04:36:06;2.83;;;1.05;;
35648;SDS011;21768;48.562;13.414;2023-02-18T04:38:32;3.58;;;1.40;;
35648;SDS011;21768;48.562;13.414;2023-02-18T04:40:58;2.35;;;1.20;;
35648;SDS011;21768;48.562;13.414;2023-02-18T04:43:23;2.97;;;1.33;;
35648;SDS011;21768;48.562;13.414;2023-02-18T04:45:48;3.40;;;1.23;;
35648;SDS011;21768;48.562;13.414;2023-02-18T04:48:14;2.08;;;1.08;;
35648;SDS011;21768;48.562;13.414;2023-02-18T04:50:39;2.15;;;1.10;;
35648;SDS011;21768;48.562;13.414;2023-02-18T04:53:05;2.42;;;1.30;;
35648;SDS011;21768;48.562;13.414;2023-02-18T04:55:30;6.25;;;1.33;;
35648;SDS011;21768;48.562;13.414;2023-02-18T04:57:55;2.20;;;1.20;;
35648;SDS011;21768;48.562;13.414;2023-02-18T05:00:21;2.10;;;1.02;;
35648;SDS011;21768;48.562;13.414;2023-02-18T05:02:46;2.13;;;1.05;;
35648;SDS011;21768;48.562;13.414;2023-02-18T05:05:12;2.13;;;1.30;;
35648;SDS011;21768;48.562;13.414;2023-02-18T05:07:38;2.72;;;1.23;;
35648;SDS011;21768;48.562;13.414;2023-02-18T05:10:06;2.55;;;1.30;;
35648;SDS011;21768;48.562;13.414;2023-02-18T05:12:32;1.45;;;1.10;;
35648;SDS011;21768;48.562;13.414;2023-02-18T05:14:58;2.42;;;1.10;;
35648;SDS011;21768;48.562;13.414;2023-02-18T05:17:23;1.83;;;1.10;;
35648;SDS011;21768;48.562;13.414;2023-02-18T05:19:49;2.05;;;1.13;;
35648;SDS011;21768;48.562;13.414;2023-02-18T05:22:14;6.35;;;1.25;;
35648;SDS011;21768;48.562;13.414;2023-02-18T05:24:40;2.50;;;1.38;;
35648;SDS011;21768;48.562;13.414;2023-02-18T05:27:05;6.43;;;1.40;;
35648;SDS011;21768;48.562;13.414;2023-02-18T05:29:30;2.78;;;1.08;;
35648;SDS011;21768;48.562;13.414;2023-02-18T05:31:56;2.30;;;1.30;;
35648;SDS011;21768;48.562;13.414;2023-02-18T05:34:21;2.50;;;1.10;;
35648;SDS011;21768;48.562;13.414;2023-02-18T05:36:47;4.78;;;1.17;;
35648;SDS011;21768;48.562;13.414;2023-02-18T05:39:12;1.63;;;1.20;;
35648;SDS011;21768;48.562;13.414;2023-02-18T05:41:38;3.90;;;1.20;;
35648;SDS011;21768;48.562;13.414;2023-02-18T05:44:03;2.88;;;1.48;;
35648;SDS011;21768;48.562;13.414;2023-02-18T05:46:47;2.72;;;1.20;;
35648;SDS011;21768;48.562;13.414;2023-02-18T05:49:13;2.33;;;1.00;;
35648;SDS011;21768;48.562;13.414;2023-02-18T05:51:39;2.50;;;1.40;;
35648;SDS011;21768;48.562;13.414;2023-02-18T05:54:04;3.95;;;1.15;;
35648;SDS011;21768;48.562;13.414;2023-02-18T05:56:29;3.22;;;1.15;;
35648;SDS011;21768;48.562;13.414;2023-02-18T05:58:55;2.20;;;0.93;;
35648;SDS011;21768;48.562;13.414;2023-02-18T06:01:20;1.48;;;0.95;;
35648;SDS011;21768;48.562;13.414;2023-02-18T06:03:46;1.77;;;1.05;;
35648;SDS011;21768;48.562;13.414;2023-02-18T06:06:11;2.63;;;1.30;;
35648;SDS011;21768;48.562;13.414;2023-02-18T06:08:36;3.22;;;1.30;;
35648;SDS011;21768;48.562;13.414;2023-02-18T06:11:02;5.70;;;2.50;;
35648;SDS011;21768;48.562;13.414;2023-02-18T06:13:27;5.13;;;1.65;;
35648;SDS011;21768;48.562;13.414;2023-02-18T06:15:53;7.20;;;1.23;;
35648;SDS011;21768;48.562;13.414;2023-02-18T06:18:19;1.88;;;1.20;;
35648;SDS011;21768;48.562;13.414;2023-02-18T06:20:45;1.73;;;1.10;;
35648;SDS011;21768;48.562;13.414;2023-02-18T06:23:11;2.53;;;1.30;;
35648;SDS011;21768;48.562;13.414;2023-02-18T06:25:37;2.90;;;1.10;;
35648;SDS011;21768;48.562;13.414;2023-02-18T06:28:02;4.65;;;1.23;;
35648;SDS011;21768;48.562;13.414;2023-02-18T06:30:27;1.77;;;1.00;;
35648;SDS011;21768;48.562;13.414;2023-02-18T06:32:53;2.80;;;1.15;;
35648;SDS011;21768;48.562;13.414;2023-02-18T06:35:18;3.03;;;0.93;;
35648;SDS011;21768;48.562;13.414;2023-02-18T06:37:44;3.92;;;1.48;;
35648;SDS011;21768;48.562;13.414;2023-02-18T06:40:09;2.08;;;1.20;;
35648;SDS011;21768;48.562;13.414;2023-02-18T06:42:35;7.07;;;1.33;;
35648;SDS011;21768;48.562;13.414;2023-02-18T06:45:00;1.67;;;1.10;;
35648;SDS011;21768;48.562;13.414;2023-02-18T06:47:26;2.13;;;1.05;;
35648;SDS011;21768;48.562;13.414;2023-02-18T06:49:51;2.83;;;1.20;;
35648;SDS011;21768;48.562;13.414;2023-02-18T06:52:17;1.70;;;0.95;;
35648;SDS011;21768;48.562;13.414;2023-02-18T06:54:42;3.13;;;1.23;;
35648;SDS011;21768;48.562;13.414;2023-02-18T06:57:08;2.03;;;1.10;;
35648;SDS011;21768;48.562;13.414;2023-02-18T06:59:33;2.25;;;1.23;;
35648;SDS011;21768;48.562;13.414;2023-02-18T07:01:58;2.10;;;1.35;;
35648;SDS011;21768;48.562;13.414;2023-02-18T07:04:24;2.00;;;1.00;;
35648;SDS011;21768;48.562;13.414;2023-02-18T07:06:49;3.45;;;1.17;;
35648;SDS011;21768;48.562;13.414;2023-02-18T07:09:14;1.85;;;1.20;;
35648;SDS011;21768;48.562;13.414;2023-02-18T07:11:40;10.75;;;1.98;;
35648;SDS011;21768;48.562;13.414;2023-02-18T07:14:05;2.17;;;1.50;;
35648;SDS011;21768;48.562;13.414;2023-02-18T07:16:30;4.70;;;1.17;;
35648;SDS011;21768;48.562;13.414;2023-02-18T07:18:56;5.28;;;1.88;;
35648;SDS011;21768;48.562;13.414;2023-02-18T07:21:21;4.20;;;1.17;;
35648;SDS011;21768;48.562;13.414;2023-02-18T07:23:47;4.28;;;1.02;;
35648;SDS011;21768;48.562;13.414;2023-02-18T07:26:12;5.97;;;1.20;;
35648;SDS011;21768;48.562;13.414;2023-02-18T07:28:38;1.77;;;1.02;;
35648;SDS011;21768;48.562;13.414;2023-02-18T07:31:04;1.30;;;1.00;;
35648;SDS011;21768;48.562;13.414;2023-02-18T07:33:31;7.10;;;1.30;;
35648;SDS011;21768;48.562;13.414;2023-02-18T07:35:57;2.63;;;1.40;;
35648;SDS011;21768;48.562;13.414;2023-02-18T07:38:24;2.78;;;1.20;;
35648;SDS011;21768;48.562;13.414;2023-02-18T07:40:51;3.30;;;1.08;;
35648;SDS011;21768;48.562;13.414;2023-02-18T07:43:17;1.85;;;1.10;;
35648;SDS011;21768;48.562;13.414;2023-02-18T07:45:42;1.85;;;1.25;;
35648;SDS011;21768;48.562;13.414;2023-02-18T07:48:08;1.65;;;0.80;;
35648;SDS011;21768;48.562;13.414;2023-02-18T07:50:34;2.72;;;0.90;;
35648;SDS011;21768;48.562;13.414;2023-02-18T07:53:04;2.45;;;1.25;;
35648;SDS011;21768;48.562;13.414;2023-02-18T07:55:30;1.90;;;1.10;;
35648;SDS011;21768;48.562;13.414;2023-02-18T07:58:17;1.40;;;0.90;;
35648;SDS011;21768;48.562;13.414;2023-02-18T08:00:47;1.80;;;1.13;;
35648;SDS011;21768;48.562;13.414;2023-02-18T08:03:14;5.97;;;2.58;;
35648;SDS011;21768;48.562;13.414;2023-02-18T08:05:40;4.13;;;2.38;;
35648;SDS011;21768;48.562;13.414;2023-02-18T08:08:06;6.13;;;1.73;;
35648;SDS011;21768;48.562;13.414;2023-02-18T08:10:32;6.20;;;2.30;;
35648;SDS011;21768;48.562;13.414;2023-02-18T08:12:57;3.88;;;1.50;;
35648;SDS011;21768;48.562;13.414;2023-02-18T08:15:22;2.35;;;1.15;;
35648;SDS011;21768;48.562;13.414;2023-02-18T08:17:48;1.27;;;0.90;;
35648;SDS011;21768;48.562;13.414;2023-02-18T08:20:13;1.58;;;1.00;;
35648;SDS011;21768;48.562;13.414;2023-02-18T08:22:38;1.58;;;1.08;;
35648;SDS011;21768;48.562;13.414;2023-02-18T08:25:04;1.60;;;0.82;;
35648;SDS011;21768;48.562;13.414;2023-02-18T08:27:30;1.33;;;0.73;;
35648;SDS011;21768;48.562;13.414;2023-02-18T08:29:55;4.45;;;1.80;;
35648;SDS011;21768;48.562;13.414;2023-02-18T08:32:20;3.03;;;1.35;;
35648;SDS011;21768;48.562;13.414;2023-02-18T08:34:46;2.67;;;1.10;;
35648;SDS011;21768;48.562;13.414;2023-02-18T08:37:11;1.58;;;1.08;;
35648;SDS011;21768;48.562;13.414;2023-02-18T08:39:37;1.17;;;1.00;;
35648;SDS011;21768;48.562;13.414;2023-02-18T08:42:03;3.42;;;1.77;;
35648;SDS011;21768;48.562;13.414;2023-02-18T08:44:29;1.55;;;1.10;;
35648;SDS011;21768;48.562;13.414;2023-02-18T08:46:54;2.55;;;1.10;;
35648;SDS011;21768;48.562;13.414;2023-02-18T08:49:20;2.65;;;0.95;;
35648;SDS011;21768;48.562;13.414;2023-02-18T08:51:48;1.55;;;1.10;;
35648;SDS011;21768;48.562;13.414;2023-02-18T08:54:17;4.13;;;1.30;;
35648;SDS011;21768;48.562;13.414;2023-02-18T08:56:42;6.22;;;1.85;;
35648;SDS011;21768;48.562;13.414;2023-02-18T08:59:08;2.35;;;1.33;;
35648;SDS011;21768;48.562;13.414;2023-02-18T09:01:33;3.72;;;1.40;;
35648;SDS011;21768;48.562;13.414;2023-02-18T09:03:59;3.38;;;2.20;;
35648;SDS011;21768;48.562;13.414;2023-02-18T09:06:24;6.43;;;3.63;;
35648;SDS011;21768;48.562;13.414;2023-02-18T09:08:50;3.05;;;1.42;;
35648;SDS011;21768;48.562;13.414;2023-02-18T09:11:15;4.00;;;2.55;;
35648;SDS011;21768;48.562;13.414;2023-02-18T09:13:41;2.47;;;1.30;;
35648;SDS011;21768;48.562;13.414;2023-02-18T09:16:09;2.38;;;0.90;;
35648;SDS011;21768;48.562;13.414;2023-02-18T09:18:37;1.77;;;1.10;;
35648;SDS011;21768;48.562;13.414;2023-02-18T09:21:03;2.63;;;1.70;;
35648;SDS011;21768;48.562;13.414;2023-02-18T09:23:31;3.22;;;1.20;;
35648;SDS011;21768;48.562;13.414;2023-02-18T09:25:58;1.95;;;1.30;;
35648;SDS011;21768;48.562;13.414;2023-02-18T09:28:24;2.70;;;0.98;;
35648;SDS011;21768;48.562;13.414;2023-02-18T09:30:50;1.60;;;1.08;;
35648;SDS011;21768;48.562;13.414;2023-02-18T09:33:15;4.30;;;1.30;;
35648;SDS011;21768;48.562;13.414;2023-02-18T09:35:42;4.68;;;1.63;;
35648;SDS011;21768;48.562;13.414;2023-02-18T09:38:09;1.80;;;1.30;;
35648;SDS011;21768;48.562;13.414;2023-02-18T09:40:36;2.45;;;1.30;;
35648;SDS011;21768;48.562;13.414;2023-02-18T09:43:05;1.80;;;1.08;;
35648;SDS011;21768;48.562;13.414;2023-02-18T09:45:31;2.45;;;1.15;;
35648;SDS011;21768;48.562;13.414;2023-02-18T09:47:57;3.40;;;1.33;;
35648;SDS011;21768;48.562;13.414;2023-02-18T09:50:27;5.25;;;1.30;;
35648;SDS011;21768;48.562;13.414;2023-02-18T09:53:00;2.00;;;1.10;;
35648;SDS011;21768;48.562;13.414;2023-02-18T09:55:28;1.35;;;1.08;;
35648;SDS011;21768;48.562;13.414;2023-02-18T09:58:04;0.85;;;0.70;;
35648;SDS011;21768;48.562;13.414;2023-02-18T10:00:37;2.05;;;1.20;;
35648;SDS011;21768;48.562;13.414;2023-02-18T10:03:14;2.95;;;1.15;;
35648;SDS011;21768;48.562;13.414;2023-02-18T10:05:45;3.95;;;1.20;;
35648;SDS011;21768;48.562;13.414;2023-02-18T10:08:27;1.92;;;1.15;;
35648;SDS011;21768;48.562;13.414;2023-02-18T10:10:54;2.42;;;1.20;;
35648;SDS011;21768;48.562;13.414;2023-02-18T10:13:21;3.80;;;1.15;;
35648;SDS011;21768;48.562;13.414;2023-02-18T10:15:53;1.27;;;0.98;;
35648;SDS011;21768;48.562;13.414;2023-02-18T10:20:47;2.88;;;1.30;;
35648;SDS011;21768;48.562;13.414;2023-02-18T10:23:14;1.83;;;1.25;;
35648;SDS011;21768;48.562;13.414;2023-02-18T10:25:42;2.25;;;1.30;;
35648;SDS011;21768;48.562;13.414;2023-02-18T10:28:09;1.80;;;1.45;;
35648;SDS011;21768;48.562;13.414;2023-02-18T10:30:42;2.05;;;1.42;;
35648;SDS011;21768;48.562;13.414;2023-02-18T10:33:32;4.88;;;1.33;;
35648;SDS011;21768;48.562;13.414;2023-02-18T10:52:19;1.42;;;0.82;;
35648;SDS011;21768;48.562;13.414;2023-02-18T10:55:04;2.65;;;1.50;;
35648;SDS011;21768;48.562;13.414;2023-02-18T10:57:33;2.83;;;1.27;;
35648;SDS011;21768;48.562;13.414;2023-02-18T11:00:05;2.40;;;1.27;;
35648;SDS011;21768;48.562;13.414;2023-02-18T11:02:41;1.77;;;0.90;;
35648;SDS011;21768;48.562;13.414;2023-02-18T11:07:50;3.45;;;1.40;;
35648;SDS011;21768;48.562;13.414;2023-02-18T11:12:49;3.67;;;1.00;;
35648;SDS011;21768;48.562;13.414;2023-02-18T11:15:18;1.23;;;0.93;;
35648;SDS011;21768;48.562;13.414;2023-02-18T11:17:50;1.17;;;0.90;;
35648;SDS011;21768;48.562;13.414;2023-02-18T11:25:25;3.80;;;0.90;;
35648;SDS011;21768;48.562;13.414;2023-02-18T11:27:57;1.38;;;0.93;;
35648;SDS011;21768;48.562;13.414;2023-02-18T11:30:30;1.63;;;1.00;;
35648;SDS011;21768;48.562;13.414;2023-02-18T11:33:00;2.05;;;0.90;;
35648;SDS011;21768;48.562;13.414;2023-02-18T11:35:32;1.95;;;1.00;;
35648;SDS011;21768;48.562;13.414;2023-02-18T11:37:59;1.80;;;1.20;;
35648;SDS011;21768;48.562;13.414;2023-02-18T11:40:31;1.80;;;1.10;;
35648;SDS011;21768;48.562;13.414;2023-02-18T11:43:16;1.88;;;1.30;;
35648;SDS011;21768;48.562;13.414;2023-02-18T11:45:43;2.17;;;1.17;;
35648;SDS011;21768;48.562;13.414;2023-02-18T11:50:49;1.48;;;1.00;;
35648;SDS011;21768;48.562;13.414;2023-02-18T11:56:01;2.35;;;1.00;;
35648;SDS011;21768;48.562;13.414;2023-02-18T11:58:40;1.50;;;0.90;;
35648;SDS011;21768;48.562;13.414;2023-02-18T12:06:43;7.47;;;0.98;;
35648;SDS011;21768;48.562;13.414;2023-02-18T12:09:22;1.65;;;0.80;;
35648;SDS011;21768;48.562;13.414;2023-02-18T12:11:54;1.63;;;1.08;;
35648;SDS011;21768;48.562;13.414;2023-02-18T12:14:23;1.85;;;1.33;;
35648;SDS011;21768;48.562;13.414;2023-02-18T12:22:27;1.75;;;1.10;;
35648;SDS011;21768;48.562;13.414;2023-02-18T12:28:31;1.75;;;0.90;;
35648;SDS011;21768;48.562;13.414;2023-02-18T12:47:45;1.63;;;0.80;;
35648;SDS011;21768;48.562;13.414;2023-02-18T13:02:17;1.85;;;0.90;;
35648;SDS011;21768;48.562;13.414;2023-02-18T13:10:20;2.05;;;0.80;;
35648;SDS011;21768;48.562;13.414;2023-02-18T13:15:52;1.30;;;0.50;;
35648;SDS011;21768;48.562;13.414;2023-02-18T13:18:25;5.18;;;0.82;;
35648;SDS011;21768;48.562;13.414;2023-02-18T13:21:13;3.20;;;0.68;;
35648;SDS011;21768;48.562;13.414;2023-02-18T13:23:57;1.88;;;0.60;;
35648;SDS011;21768;48.562;13.414;2023-02-18T13:37:27;1.17;;;0.60;;
35648;SDS011;21768;48.562;13.414;2023-02-18T13:39:55;2.55;;;0.60;;
35648;SDS011;21768;48.562;13.414;2023-02-18T13:42:24;0.70;;;0.47;;
35648;SDS011;21768;48.562;13.414;2023-02-18T13:50:12;0.93;;;0.55;;
35648;SDS011;21768;48.562;13.414;2023-02-18T13:58:13;13.13;;;4.00;;
35648;SDS011;21768;48.562;13.414;2023-02-18T14:00:45;2.92;;;1.08;;
35648;SDS011;21768;48.562;13.414;2023-02-18T14:05:54;2.00;;;1.50;;
35648;SDS011;21768;48.562;13.414;2023-02-18T14:13:37;4.78;;;2.67;;
35648;SDS011;21768;48.562;13.414;2023-02-18T14:16:17;1.77;;;1.13;;
35648;SDS011;21768;48.562;13.414;2023-02-18T14:33:36;2.30;;;1.25;;
35648;SDS011;21768;48.562;13.414;2023-02-18T14:36:15;6.78;;;3.80;;
35648;SDS011;21768;48.562;13.414;2023-02-18T14:38:58;3.25;;;1.80;;
35648;SDS011;21768;48.562;13.414;2023-02-18T14:41:53;3.60;;;2.60;;
35648;SDS011;21768;48.562;13.414;2023-02-18T14:47:34;0.88;;;0.70;;
35648;SDS011;21768;48.562;13.414;2023-02-18T14:50:03;1.70;;;0.65;;
35648;SDS011;21768;48.562;13.414;2023-02-18T14:52:40;4.68;;;2.85;;
35648;SDS011;21768;48.562;13.414;2023-02-18T14:55:27;2.72;;;1.48;;
35648;SDS011;21768;48.562;13.414;2023-02-18T14:58:00;8.60;;;5.17;;
35648;SDS011;21768;48.562;13.414;2023-02-18T15:00:29;8.32;;;4.43;;
35648;SDS011;21768;48.562;13.414;2023-02-18T15:02:59;6.63;;;4.13;;
35648;SDS011;21768;48.562;13.414;2023-02-18T15:05:27;0.60;;;0.50;;
35648;SDS011;21768;48.562;13.414;2023-02-18T15:07:54;0.95;;;0.80;;
35648;SDS011;21768;48.562;13.414;2023-02-18T15:10:33;2.45;;;1.30;;
35648;SDS011;21768;48.562;13.414;2023-02-18T15:15:44;2.15;;;1.88;;
35648;SDS011;21768;48.562;13.414;2023-02-18T15:18:21;4.78;;;3.47;;
35648;SDS011;21768;48.562;13.414;2023-02-18T15:20:52;3.05;;;1.20;;
35648;SDS011;21768;48.562;13.414;2023-02-18T15:23:18;2.63;;;1.20;;
35648;SDS011;21768;48.562;13.414;2023-02-18T15:25:48;1.20;;;0.68;;
35648;SDS011;21768;48.562;13.414;2023-02-18T15:28:23;1.52;;;1.00;;
35648;SDS011;21768;48.562;13.414;2023-02-18T15:30:55;1.23;;;1.02;;
35648;SDS011;21768;48.562;13.414;2023-02-18T15:33:22;3.63;;;2.10;;
35648;SDS011;21768;48.562;13.414;2023-02-18T15:35:47;4.53;;;3.03;;
35648;SDS011;21768;48.562;13.414;2023-02-18T15:38:15;1.33;;;0.70;;
35648;SDS011;21768;48.562;13.414;2023-02-18T15:40:51;6.55;;;3.63;;
35648;SDS011;21768;48.562;13.414;2023-02-18T15:43:22;3.45;;;2.28;;
35648;SDS011;21768;48.562;13.414;2023-02-18T15:45:51;1.70;;;1.25;;
35648;SDS011;21768;48.562;13.414;2023-02-18T15:48:21;1.88;;;1.02;;
35648;SDS011;21768;48.562;13.414;2023-02-18T15:50:55;2.22;;;1.80;;
35648;SDS011;21768;48.562;13.414;2023-02-18T15:53:22;1.92;;;1.35;;
35648;SDS011;21768;48.562;13.414;2023-02-18T15:55:49;1.58;;;0.98;;
35648;SDS011;21768;48.562;13.414;2023-02-18T16:00:48;1.67;;;0.80;;
35648;SDS011;21768;48.562;13.414;2023-02-18T16:05:49;1.45;;;0.85;;
35648;SDS011;21768;48.562;13.414;2023-02-18T16:08:16;2.78;;;1.10;;
35648;SDS011;21768;48.562;13.414;2023-02-18T16:10:55;1.92;;;1.00;;
35648;SDS011;21768;48.562;13.414;2023-02-18T16:13:24;4.70;;;0.90;;
35648;SDS011;21768;48.562;13.414;2023-02-18T16:15:50;1.80;;;1.00;;
35648;SDS011;21768;48.562;13.414;2023-02-18T16:23:44;3.08;;;2.50;;
35648;SDS011;21768;48.562;13.414;2023-02-18T16:28:45;3.33;;;1.10;;
35648;SDS011;21768;48.562;13.414;2023-02-18T16:31:11;1.08;;;0.90;;
35648;SDS011;21768;48.562;13.414;2023-02-18T16:33:36;3.97;;;1.15;;
35648;SDS011;21768;48.562;13.414;2023-02-18T16:36:02;2.08;;;1.17;;
35648;SDS011;21768;48.562;13.414;2023-02-18T16:38:28;5.55;;;1.95;;
35648;SDS011;21768;48.562;13.414;2023-02-18T16:40:54;1.42;;;0.85;;
35648;SDS011;21768;48.562;13.414;2023-02-18T16:43:20;1.73;;;0.90;;
35648;SDS011;21768;48.562;13.414;2023-02-18T16:45:51;2.20;;;0.80;;
35648;SDS011;21768;48.562;13.414;2023-02-18T16:48:28;1.88;;;1.00;;
35648;SDS011;21768;48.562;13.414;2023-02-18T16:51:00;2.30;;;1.20;;
35648;SDS011;21768;48.562;13.414;2023-02-18T16:53:28;1.50;;;0.93;;
35648;SDS011;21768;48.562;13.414;2023-02-18T16:55:54;1.30;;;0.90;;
35648;SDS011;21768;48.562;13.414;2023-02-18T16:58:20;1.77;;;1.10;;
35648;SDS011;21768;48.562;13.414;2023-02-18T17:00:45;1.30;;;0.85;;
35648;SDS011;21768;48.562;13.414;2023-02-18T17:03:13;3.25;;;0.90;;
35648;SDS011;21768;48.562;13.414;2023-02-18T17:05:40;3.17;;;1.10;;
35648;SDS011;21768;48.562;13.414;2023-02-18T17:10:40;1.45;;;0.85;;
35648;SDS011;21768;48.562;13.414;2023-02-18T17:13:05;4.63;;;1.10;;
35648;SDS011;21768;48.562;13.414;2023-02-18T17:15:33;2.33;;;1.65;;
35648;SDS011;21768;48.562;13.414;2023-02-18T17:17:59;1.75;;;1.10;;
35648;SDS011;21768;48.562;13.414;2023-02-18T17:20:30;6.45;;;3.03;;
35648;SDS011;21768;48.562;13.414;2023-02-18T17:22:57;3.80;;;1.60;;
35648;SDS011;21768;48.562;13.414;2023-02-18T17:25:25;4.65;;;1.77;;
35648;SDS011;21768;48.562;13.414;2023-02-18T17:27:54;3.72;;;1.60;;
35648;SDS011;21768;48.562;13.414;2023-02-18T17:30:20;2.88;;;1.27;;
35648;SDS011;21768;48.562;13.414;2023-02-18T17:32:45;5.28;;;3.25;;
35648;SDS011;21768;48.562;13.414;2023-02-18T17:35:16;5.00;;;3.10;;
35648;SDS011;21768;48.562;13.414;2023-02-18T17:37:43;11.13;;;7.05;;
35648;SDS011;21768;48.562;13.414;2023-02-18T17:40:16;4.93;;;2.60;;
35648;SDS011;21768;48.562;13.414;2023-02-18T17:42:46;1.90;;;1.30;;
35648;SDS011;21768;48.562;13.414;2023-02-18T17:47:43;11.05;;;4.15;;
35648;SDS011;21768;48.562;13.414;2023-02-18T17:50:08;5.07;;;2.35;;
35648;SDS011;21768;48.562;13.414;2023-02-18T17:52:34;12.25;;;6.70;;
35648;SDS011;21768;48.562;13.414;2023-02-18T17:55:00;14.90;;;4.82;;
35648;SDS011;21768;48.562;13.414;2023-02-18T17:57:26;12.88;;;6.72;;